createdAt,value
2022-12-23T00:00:36.066Z,96.02
2022-12-23T00:01:37.763Z,95.93
2022-12-23T00:02:39.614Z,95.87
2022-12-23T00:03:41.572Z,95.83
2022-12-23T00:04:43.553Z,95.66
2022-12-23T00:05:45.237Z,95.69
2022-12-23T00:06:46.899Z,95.60
2022-12-23T00:07:48.512Z,95.63
2022-12-23T00:08:50.129Z,95.49
2022-12-23T00:09:51.736Z,95.50
2022-12-23T00:10:54.043Z,95.52
2022-12-23T00:12:14.327Z,95.59
2022-12-23T00:13:34.499Z,95.73
2022-12-23T00:14:54.445Z,95.91
2022-12-23T00:16:06.560Z,96.08
2022-12-23T00:17:21.612Z,96.17
2022-12-23T00:18:24.418Z,96.18
2022-12-23T00:19:26.163Z,96.07
2022-12-23T00:20:27.825Z,96.10
2022-12-23T00:21:29.466Z,96.10
2022-12-23T00:22:50.187Z,96.06
2022-12-23T00:23:52.056Z,96.05
2022-12-23T00:24:53.661Z,95.95
2022-12-23T00:25:55.320Z,95.96
2022-12-23T00:26:56.987Z,95.97
2022-12-23T00:28:01.536Z,95.71
2022-12-23T00:29:03.279Z,95.19
2022-12-23T00:30:06.046Z,95.15
2022-12-23T00:31:07.902Z,95.19
2022-12-23T00:32:09.668Z,95.10
2022-12-23T00:33:11.327Z,95.20
2022-12-23T00:34:13.278Z,95.30
2022-12-23T00:35:14.883Z,95.25
2022-12-23T00:36:28.632Z,95.17
2022-12-23T00:37:31.252Z,95.08
2022-12-23T00:38:51.486Z,95.14
2022-12-23T00:40:11.557Z,94.67
2022-12-23T00:41:36.193Z,94.70
2022-12-23T00:42:56.283Z,94.10
2022-12-23T00:43:58.134Z,94.00
2022-12-23T00:45:15.794Z,93.91
2022-12-23T00:46:17.746Z,93.92
2022-12-23T00:47:37.982Z,94.22
2022-12-23T00:48:58.065Z,94.24
2022-12-23T00:49:59.665Z,94.69
2022-12-23T00:51:01.308Z,94.74
2022-12-23T00:52:03.335Z,94.88
2022-12-23T00:53:06.099Z,95.03
2022-12-23T00:54:07.817Z,94.88
2022-12-23T00:55:09.566Z,94.73
2022-12-23T00:56:11.159Z,94.94
2022-12-23T00:57:12.780Z,95.13
2022-12-23T00:58:18.011Z,94.79
2022-12-23T00:59:19.604Z,94.38
2022-12-23T01:00:41.316Z,94.28
2022-12-23T01:02:01.569Z,94.22
2022-12-23T01:03:22.081Z,94.14
2022-12-23T01:04:42.202Z,94.40
2022-12-23T01:05:43.905Z,94.22
2022-12-23T01:06:45.549Z,94.21
2022-12-23T01:07:47.157Z,94.03
2022-12-23T01:08:48.752Z,93.77
2022-12-23T01:09:50.343Z,93.86
2022-12-23T01:10:52.022Z,94.02
2022-12-23T01:11:53.720Z,94.50
2022-12-23T01:12:55.324Z,94.83
2022-12-23T01:13:58.473Z,94.84
2022-12-23T01:15:00.179Z,94.71
2022-12-23T01:16:11.793Z,94.46
2022-12-23T01:17:17.018Z,94.41
2022-12-23T01:18:18.685Z,94.48
2022-12-23T01:19:20.365Z,94.52
2022-12-23T01:20:22.022Z,94.51
2022-12-23T01:21:23.639Z,94.52
2022-12-23T01:22:25.288Z,94.61
2022-12-23T01:23:26.886Z,94.84
2022-12-23T01:24:29.672Z,94.68
2022-12-23T01:25:31.687Z,94.62
2022-12-23T01:26:33.301Z,94.54
2022-12-23T01:27:35.005Z,94.43
2022-12-23T01:28:36.706Z,94.38
2022-12-23T01:29:38.298Z,94.44
2022-12-23T01:30:39.954Z,94.63
2022-12-23T01:31:41.636Z,94.34
2022-12-23T01:32:43.287Z,94.18
2022-12-23T01:33:46.054Z,94.15
2022-12-23T01:34:47.647Z,94.17
2022-12-23T01:35:49.321Z,94.21
2022-12-23T01:36:50.917Z,94.08
2022-12-23T01:37:52.622Z,93.97
2022-12-23T01:38:56.072Z,94.00
2022-12-23T01:39:57.673Z,94.13
2022-12-23T01:40:59.288Z,94.35
2022-12-23T01:42:19.204Z,94.51
2022-12-23T01:43:21.014Z,93.93
2022-12-23T01:44:50.732Z,94.54
2022-12-23T01:45:52.456Z,95.10
2022-12-23T01:46:54.075Z,94.65
2022-12-23T01:48:02.785Z,94.59
2022-12-23T01:49:04.403Z,94.68
2022-12-23T01:50:27.233Z,94.73
2022-12-23T01:51:29.076Z,94.74
2022-12-23T01:52:31.377Z,94.50
2022-12-23T01:53:38.875Z,93.93
2022-12-23T01:54:40.474Z,94.51
2022-12-23T01:55:49.055Z,95.02
2022-12-23T01:56:50.640Z,94.70
2022-12-23T01:57:53.209Z,94.21
2022-12-23T01:59:02.543Z,93.89
2022-12-23T02:00:23.284Z,94.24
2022-12-23T02:01:43.946Z,94.67
2022-12-23T02:03:04.423Z,94.84
2022-12-23T02:04:11.470Z,95.23
2022-12-23T02:05:13.074Z,95.52
2022-12-23T02:06:43.430Z,95.64
2022-12-23T02:08:03.842Z,95.84
2022-12-23T02:09:19.342Z,96.03
2022-12-23T02:10:21.122Z,96.19
2022-12-23T02:11:54.800Z,96.43
2022-12-23T02:13:02.503Z,96.64
2022-12-23T02:14:32.930Z,96.82
2022-12-23T02:16:00.469Z,97.12
2022-12-23T02:17:10.458Z,97.25
2022-12-23T02:18:24.159Z,97.34
2022-12-23T02:20:12.423Z,97.61
2022-12-23T02:21:28.218Z,97.73
2022-12-23T02:22:29.967Z,97.78
2022-12-23T02:23:46.739Z,98.01
2022-12-23T02:25:12.587Z,98.03
2022-12-23T02:26:22.994Z,98.05
2022-12-23T02:27:42.409Z,98.06
2022-12-23T02:29:07.750Z,98.07
2022-12-23T02:30:18.568Z,98.00
2022-12-23T02:31:41.876Z,98.03
2022-12-23T02:32:57.777Z,98.07
2022-12-23T02:34:14.582Z,98.21
2022-12-23T02:35:23.835Z,98.24
2022-12-23T02:36:50.230Z,98.30
2022-12-23T02:38:15.134Z,98.35
2022-12-23T02:39:36.182Z,98.42
2022-12-23T02:40:58.227Z,98.43
2022-12-23T02:42:05.264Z,98.34
2022-12-23T02:43:19.392Z,98.38
2022-12-23T02:44:36.486Z,98.39
2022-12-23T02:45:38.186Z,98.42
2022-12-23T02:46:47.122Z,98.45
2022-12-23T02:47:55.074Z,98.43
2022-12-23T02:49:12.641Z,98.43
2022-12-23T02:50:20.046Z,98.35
2022-12-23T02:51:22.808Z,98.36
2022-12-23T02:52:27.352Z,98.29
2022-12-23T02:53:35.026Z,98.31
2022-12-23T02:54:44.144Z,98.29
2022-12-23T02:55:45.790Z,98.34
2022-12-23T02:56:47.700Z,98.38
2022-12-23T02:57:49.798Z,98.40
2022-12-23T02:58:54.831Z,98.51
2022-12-23T02:59:56.408Z,98.53
2022-12-23T03:00:58.105Z,98.60
2022-12-23T03:01:59.819Z,98.63
2022-12-23T03:03:01.701Z,98.71
2022-12-23T03:04:03.444Z,98.70
2022-12-23T03:05:06.073Z,98.80
2022-12-23T03:06:32.355Z,98.85
2022-12-23T03:07:37.124Z,98.82
2022-12-23T03:08:39.894Z,98.95
2022-12-23T03:10:17.338Z,98.95
2022-12-23T03:11:18.929Z,99.01
2022-12-23T03:12:31.056Z,98.93
2022-12-23T03:14:06.038Z,98.92
2022-12-23T03:15:11.457Z,98.97
2022-12-23T03:16:15.859Z,98.96
2022-12-23T03:17:38.980Z,98.97
2022-12-23T03:19:04.341Z,98.90
2022-12-23T03:20:14.610Z,98.95
2022-12-23T03:21:24.727Z,98.96
2022-12-23T03:22:36.415Z,98.93
2022-12-23T03:23:53.621Z,98.93
2022-12-23T03:25:00.098Z,98.93
2022-12-23T03:26:12.249Z,99.04
2022-12-23T03:27:25.890Z,99.10
2022-12-23T03:28:33.764Z,98.94
2022-12-23T03:29:43.801Z,98.79
2022-12-23T03:30:48.091Z,98.78
2022-12-23T03:31:49.735Z,98.78
2022-12-23T03:33:02.266Z,98.78
2022-12-23T03:34:05.991Z,98.77
2022-12-23T03:35:08.441Z,98.80
2022-12-23T03:36:12.189Z,98.78
2022-12-23T03:37:14.341Z,98.80
2022-12-23T03:38:15.992Z,98.80
2022-12-23T03:39:20.092Z,98.75
2022-12-23T03:40:42.758Z,98.79
2022-12-23T03:41:47.892Z,98.84
2022-12-23T03:42:54.356Z,98.88
2022-12-23T03:44:00.438Z,98.91
2022-12-23T03:45:37.137Z,98.98
2022-12-23T03:46:58.504Z,99.01
2022-12-23T03:48:03.168Z,99.06
2022-12-23T03:49:17.403Z,99.04
2022-12-23T03:50:19.654Z,99.07
2022-12-23T03:51:25.362Z,99.11
2022-12-23T03:52:29.232Z,99.09
2022-12-23T03:53:32.704Z,99.11
2022-12-23T03:54:38.978Z,99.11
2022-12-23T03:55:46.973Z,99.14
2022-12-23T03:56:51.615Z,99.09
2022-12-23T03:57:56.259Z,99.11
2022-12-23T03:58:59.662Z,99.06
2022-12-23T04:00:01.257Z,99.08
2022-12-23T04:01:22.040Z,99.11
2022-12-23T04:02:25.160Z,99.20
2022-12-23T04:03:34.230Z,99.24
2022-12-23T04:04:53.565Z,99.26
2022-12-23T04:05:58.072Z,99.06
2022-12-23T04:07:10.528Z,98.93
2022-12-23T04:08:25.113Z,98.89
2022-12-23T04:09:27.794Z,98.84
2022-12-23T04:10:29.540Z,98.79
2022-12-23T04:11:31.137Z,98.85
2022-12-23T04:12:32.710Z,98.90
2022-12-23T04:13:34.369Z,98.95
2022-12-23T04:14:36.034Z,98.95
2022-12-23T04:15:43.463Z,98.96
2022-12-23T04:16:45.857Z,99.04
2022-12-23T04:17:48.455Z,99.06
2022-12-23T04:18:50.107Z,99.11
2022-12-23T04:19:51.757Z,99.06
2022-12-23T04:20:53.339Z,99.12
2022-12-23T04:21:55.880Z,99.12
2022-12-23T04:22:57.486Z,99.14
2022-12-23T04:23:59.133Z,99.14
2022-12-23T04:25:00.767Z,99.11
2022-12-23T04:26:02.367Z,99.03
2022-12-23T04:27:04.027Z,98.84
2022-12-23T04:28:05.663Z,98.88
2022-12-23T04:29:07.351Z,98.87
2022-12-23T04:30:10.359Z,98.95
2022-12-23T04:31:12.021Z,98.95
2022-12-23T04:32:13.743Z,98.96
2022-12-23T04:33:15.361Z,98.96
2022-12-23T04:34:17.027Z,99.00
2022-12-23T04:35:18.744Z,98.95
2022-12-23T04:36:20.317Z,99.02
2022-12-23T04:37:21.926Z,99.00
2022-12-23T04:38:23.706Z,98.97
2022-12-23T04:39:25.380Z,98.95
2022-12-23T04:40:27.010Z,99.00
2022-12-23T04:41:28.618Z,99.05
2022-12-23T04:42:30.292Z,99.05
2022-12-23T04:43:32.117Z,99.07
2022-12-23T04:44:33.801Z,99.07
2022-12-23T04:45:35.390Z,99.13
2022-12-23T04:46:37.136Z,99.12
2022-12-23T04:47:38.830Z,99.12
2022-12-23T04:48:40.409Z,99.18
2022-12-23T04:49:42.222Z,99.19
2022-12-23T04:50:43.908Z,99.23
2022-12-23T04:51:45.489Z,99.27
2022-12-23T04:52:47.129Z,99.25
2022-12-23T04:53:48.740Z,99.24
2022-12-23T04:54:50.423Z,99.23
2022-12-23T04:55:52.255Z,99.16
2022-12-23T04:56:53.862Z,99.26
2022-12-23T04:57:55.543Z,99.25
2022-12-23T04:58:57.211Z,99.26
2022-12-23T04:59:58.820Z,99.27
2022-12-23T05:01:04.453Z,99.25
2022-12-23T05:02:06.370Z,99.31
2022-12-23T05:03:08.244Z,99.34
2022-12-23T05:04:10.079Z,99.37
2022-12-23T05:05:11.708Z,99.38
2022-12-23T05:06:13.304Z,99.38
2022-12-23T05:07:15.040Z,99.40
2022-12-23T05:08:16.730Z,99.38
2022-12-23T05:09:18.501Z,99.42
2022-12-23T05:10:20.106Z,99.39
2022-12-23T05:11:21.741Z,99.41
2022-12-23T05:12:23.359Z,99.39
2022-12-23T05:13:25.030Z,99.41
2022-12-23T05:14:26.660Z,99.48
2022-12-23T05:15:28.311Z,99.45
2022-12-23T05:16:31.304Z,99.52
2022-12-23T05:17:33.015Z,99.52
2022-12-23T05:18:34.677Z,99.55
2022-12-23T05:19:36.290Z,99.50
2022-12-23T05:20:37.885Z,99.50
2022-12-23T05:21:39.483Z,99.50
2022-12-23T05:22:41.133Z,99.40
2022-12-23T05:23:42.780Z,99.34
2022-12-23T05:24:44.399Z,99.17
2022-12-23T05:25:50.719Z,99.12
2022-12-23T05:26:59.421Z,99.13
2022-12-23T05:28:01.834Z,99.11
2022-12-23T05:29:03.545Z,99.07
2022-12-23T05:30:06.585Z,99.06
2022-12-23T05:31:08.383Z,99.02
2022-12-23T05:32:10.198Z,99.00
2022-12-23T05:33:11.953Z,99.00
2022-12-23T05:34:13.646Z,99.12
2022-12-23T05:35:15.330Z,99.04
2022-12-23T05:36:17.005Z,98.98
2022-12-23T05:37:18.621Z,98.94
2022-12-23T05:38:20.408Z,98.84
2022-12-23T05:39:22.107Z,98.83
2022-12-23T05:40:28.133Z,98.83
2022-12-23T05:41:32.603Z,98.74
2022-12-23T05:42:34.561Z,98.71
2022-12-23T05:43:36.144Z,98.67
2022-12-23T05:44:37.791Z,98.71
2022-12-23T05:45:39.448Z,98.70
2022-12-23T05:46:41.184Z,98.65
2022-12-23T05:47:42.908Z,98.62
2022-12-23T05:48:44.497Z,98.61
2022-12-23T05:49:46.089Z,98.69
2022-12-23T05:50:51.634Z,98.70
2022-12-23T05:51:53.222Z,98.74
2022-12-23T05:52:57.961Z,98.71
2022-12-23T05:53:59.632Z,98.73
2022-12-23T05:55:01.252Z,98.77
2022-12-23T05:56:06.339Z,98.77
2022-12-23T05:57:07.976Z,98.79
2022-12-23T05:58:10.467Z,98.73
2022-12-23T05:59:12.061Z,98.76
2022-12-23T06:00:14.310Z,98.66
2022-12-23T06:01:15.925Z,98.69
2022-12-23T06:02:17.774Z,98.72
2022-12-23T06:03:20.201Z,98.77
2022-12-23T06:04:22.009Z,98.71
2022-12-23T06:05:23.633Z,98.57
2022-12-23T06:06:25.235Z,98.54
2022-12-23T06:07:26.841Z,98.41
2022-12-23T06:08:29.264Z,98.39
2022-12-23T06:09:30.840Z,98.46
2022-12-23T06:10:32.462Z,98.30
2022-12-23T06:11:34.054Z,98.28
2022-12-23T06:12:36.795Z,98.34
2022-12-23T06:13:38.400Z,98.32
2022-12-23T06:14:40.014Z,98.35
2022-12-23T06:15:41.615Z,98.39
2022-12-23T06:16:43.230Z,98.40
2022-12-23T06:17:46.172Z,98.36
2022-12-23T06:18:47.761Z,98.45
2022-12-23T06:19:49.417Z,98.50
2022-12-23T06:20:51.795Z,98.59
2022-12-23T06:21:53.413Z,98.58
2022-12-23T06:22:55.051Z,98.72
2022-12-23T06:23:56.656Z,98.76
2022-12-23T06:24:58.273Z,98.79
2022-12-23T06:26:02.758Z,98.86
2022-12-23T06:27:04.362Z,98.81
2022-12-23T06:28:07.725Z,98.81
2022-12-23T06:29:10.593Z,98.89
2022-12-23T06:30:12.439Z,98.92
2022-12-23T06:31:14.190Z,98.89
2022-12-23T06:32:15.856Z,98.94
2022-12-23T06:33:17.510Z,98.93
2022-12-23T06:34:19.181Z,98.91
2022-12-23T06:35:20.840Z,98.88
2022-12-23T06:36:22.433Z,98.80
2022-12-23T06:37:24.219Z,98.80
2022-12-23T06:38:25.861Z,98.77
2022-12-23T06:39:27.605Z,98.65
2022-12-23T06:40:29.825Z,98.63
2022-12-23T06:41:31.480Z,98.49
2022-12-23T06:42:33.137Z,98.25
2022-12-23T06:43:35.140Z,98.20
2022-12-23T06:44:36.860Z,98.10
2022-12-23T06:45:38.502Z,98.00
2022-12-23T06:46:40.183Z,97.97
2022-12-23T06:47:41.777Z,97.85
2022-12-23T06:48:43.411Z,97.75
2022-12-23T06:49:45.096Z,97.70
2022-12-23T06:50:46.724Z,97.75
2022-12-23T06:51:48.325Z,97.72
2022-12-23T06:52:50.201Z,97.66
2022-12-23T06:53:51.951Z,97.66
2022-12-23T06:54:53.545Z,97.61
2022-12-23T06:56:01.594Z,97.67
2022-12-23T06:57:03.307Z,97.72
2022-12-23T06:58:05.291Z,97.59
2022-12-23T06:59:06.953Z,97.52
2022-12-23T07:00:09.317Z,97.67
2022-12-23T07:01:11.106Z,97.62
2022-12-23T07:02:13.024Z,97.48
2022-12-23T07:03:15.377Z,97.35
2022-12-23T07:04:17.212Z,97.28
2022-12-23T07:05:18.855Z,97.30
2022-12-23T07:06:20.556Z,97.49
2022-12-23T07:07:22.218Z,97.55
2022-12-23T07:08:23.826Z,97.52
2022-12-23T07:09:26.263Z,97.51
2022-12-23T07:10:27.878Z,97.50
2022-12-23T07:11:30.090Z,97.56
2022-12-23T07:12:31.819Z,97.58
2022-12-23T07:13:33.440Z,97.56
2022-12-23T07:14:35.157Z,97.61
2022-12-23T07:15:37.594Z,97.63
2022-12-23T07:16:39.210Z,97.67
2022-12-23T07:17:40.903Z,97.67
2022-12-23T07:18:42.565Z,97.64
2022-12-23T07:19:44.249Z,97.74
2022-12-23T07:20:45.911Z,97.80
2022-12-23T07:21:47.558Z,97.84
2022-12-23T07:22:50.357Z,98.03
2022-12-23T07:23:52.014Z,97.99
2022-12-23T07:24:53.619Z,97.94
2022-12-23T07:25:55.857Z,97.99
2022-12-23T07:26:57.492Z,98.01
2022-12-23T07:27:59.108Z,98.10
2022-12-23T07:29:01.491Z,98.18
2022-12-23T07:30:03.380Z,98.26
2022-12-23T07:31:08.120Z,98.32
2022-12-23T07:32:09.872Z,98.36
2022-12-23T07:33:11.542Z,98.39
2022-12-23T07:34:13.282Z,98.43
2022-12-23T07:35:15.226Z,98.39
2022-12-23T07:36:16.889Z,98.41
2022-12-23T07:37:18.502Z,98.44
2022-12-23T07:38:20.179Z,98.41
2022-12-23T07:39:21.806Z,98.39
2022-12-23T07:40:23.785Z,98.35
2022-12-23T07:41:25.414Z,98.39
2022-12-23T07:42:44.828Z,98.42
2022-12-23T07:43:47.582Z,98.39
2022-12-23T07:44:49.196Z,98.36
2022-12-23T07:45:57.324Z,98.43
2022-12-23T07:47:01.473Z,98.47
2022-12-23T07:48:03.101Z,98.48
2022-12-23T07:49:04.955Z,98.47
2022-12-23T07:50:07.322Z,98.51
2022-12-23T07:51:09.018Z,98.55
2022-12-23T07:52:10.662Z,98.52
2022-12-23T07:53:12.356Z,98.44
2022-12-23T07:54:14.235Z,98.42
2022-12-23T07:55:15.915Z,98.47
2022-12-23T07:56:18.343Z,98.49
2022-12-23T07:57:20.005Z,98.39
2022-12-23T07:58:21.596Z,98.36
2022-12-23T07:59:25.854Z,98.28
2022-12-23T08:00:27.515Z,98.18
2022-12-23T08:01:29.182Z,98.13
2022-12-23T08:02:30.941Z,98.20
2022-12-23T08:03:32.742Z,98.23
2022-12-23T08:04:34.437Z,98.21
2022-12-23T08:05:36.216Z,98.14
2022-12-23T08:06:37.861Z,98.11
2022-12-23T08:07:39.583Z,98.06
2022-12-23T08:08:42.547Z,98.02
2022-12-23T08:09:44.178Z,97.99
2022-12-23T08:10:48.583Z,98.06
2022-12-23T08:11:50.386Z,98.10
2022-12-23T08:12:52.015Z,98.12
2022-12-23T08:13:53.858Z,98.11
2022-12-23T08:14:55.531Z,98.22
2022-12-23T08:15:57.973Z,98.28
2022-12-23T08:16:59.681Z,98.28
2022-12-23T08:18:01.452Z,98.26
2022-12-23T08:19:03.193Z,98.30
2022-12-23T08:20:05.154Z,98.35
2022-12-23T08:21:18.057Z,98.41
2022-12-23T08:22:19.792Z,98.43
2022-12-23T08:23:24.865Z,98.50
2022-12-23T08:24:26.761Z,98.61
2022-12-23T08:25:28.385Z,98.70
2022-12-23T08:26:30.066Z,98.68
2022-12-23T08:27:31.712Z,98.74
2022-12-23T08:28:33.837Z,98.78
2022-12-23T08:29:36.638Z,98.72
2022-12-23T08:30:38.417Z,98.72
2022-12-23T08:31:40.206Z,98.73
2022-12-23T08:32:41.884Z,98.72
2022-12-23T08:33:44.952Z,98.68
2022-12-23T08:34:46.559Z,98.72
2022-12-23T08:35:48.145Z,98.64
2022-12-23T08:36:49.738Z,98.60
2022-12-23T08:37:51.357Z,98.53
2022-12-23T08:38:53.904Z,98.51
2022-12-23T08:39:55.507Z,98.49
2022-12-23T08:40:57.274Z,98.47
2022-12-23T08:41:58.953Z,98.52
2022-12-23T08:43:00.829Z,98.55
2022-12-23T08:44:02.497Z,98.56
2022-12-23T08:45:04.337Z,98.62
2022-12-23T08:46:06.239Z,98.60
2022-12-23T08:47:07.925Z,98.57
2022-12-23T08:48:09.576Z,98.45
2022-12-23T08:49:11.282Z,98.37
2022-12-23T08:50:12.951Z,98.40
2022-12-23T08:51:16.680Z,98.43
2022-12-23T08:52:18.299Z,98.42
2022-12-23T08:53:19.942Z,98.36
2022-12-23T08:54:22.330Z,98.39
2022-12-23T08:55:23.981Z,98.37
2022-12-23T08:56:27.739Z,98.35
2022-12-23T08:57:29.331Z,98.33
2022-12-23T08:58:30.955Z,98.39
2022-12-23T08:59:32.557Z,98.50
2022-12-23T09:00:35.980Z,98.57
2022-12-23T09:01:37.702Z,98.62
2022-12-23T09:02:39.607Z,98.65
2022-12-23T09:03:41.471Z,98.67
2022-12-23T09:04:43.146Z,98.65
2022-12-23T09:05:44.752Z,98.55
2022-12-23T09:06:46.533Z,98.43
2022-12-23T09:07:48.172Z,98.39
2022-12-23T09:08:49.953Z,98.43
2022-12-23T09:09:51.568Z,98.45
2022-12-23T09:10:53.243Z,98.36
2022-12-23T09:11:54.862Z,98.39
2022-12-23T09:12:58.113Z,98.37
2022-12-23T09:14:00.553Z,98.37
2022-12-23T09:15:02.198Z,98.44
2022-12-23T09:16:04.467Z,98.54
2022-12-23T09:17:06.123Z,98.55
2022-12-23T09:18:07.834Z,98.61
2022-12-23T09:19:09.557Z,98.60
2022-12-23T09:20:11.497Z,98.66
2022-12-23T09:21:14.987Z,98.56
2022-12-23T09:22:16.584Z,98.47
2022-12-23T09:23:18.292Z,98.44
2022-12-23T09:24:19.898Z,98.41
2022-12-23T09:25:21.488Z,98.38
2022-12-23T09:26:27.729Z,98.41
2022-12-23T09:27:29.361Z,98.51
2022-12-23T09:28:31.042Z,98.52
2022-12-23T09:29:32.664Z,98.53
2022-12-23T09:30:34.274Z,98.45
2022-12-23T09:31:37.717Z,98.44
2022-12-23T09:32:39.707Z,98.43
2022-12-23T09:33:41.416Z,98.31
2022-12-23T09:34:42.999Z,98.30
2022-12-23T09:35:44.787Z,98.41
2022-12-23T09:36:50.397Z,98.39
2022-12-23T09:37:55.077Z,98.39
2022-12-23T09:38:57.405Z,98.20
2022-12-23T09:39:59.059Z,98.09
2022-12-23T09:41:29.780Z,98.07
2022-12-23T09:42:45.078Z,98.19
2022-12-23T09:44:09.711Z,98.10
2022-12-23T09:45:17.058Z,98.12
2022-12-23T09:46:25.678Z,98.16
2022-12-23T09:47:27.718Z,98.32
2022-12-23T09:48:37.763Z,98.44
2022-12-23T09:49:45.580Z,98.48
2022-12-23T09:50:47.297Z,98.51
2022-12-23T09:51:49.002Z,98.54
2022-12-23T09:53:00.869Z,98.54
2022-12-23T09:54:16.831Z,98.60
2022-12-23T09:55:18.897Z,98.58
2022-12-23T09:56:26.704Z,98.69
2022-12-23T09:57:40.027Z,98.64
2022-12-23T09:58:52.174Z,98.68
2022-12-23T10:00:02.530Z,98.61
2022-12-23T10:01:13.271Z,98.64
2022-12-23T10:02:42.608Z,98.61
2022-12-23T10:03:53.232Z,98.62
2022-12-23T10:05:02.954Z,98.71
2022-12-23T10:06:22.989Z,98.59
2022-12-23T10:07:33.703Z,98.44
2022-12-23T10:08:39.004Z,98.42
2022-12-23T10:09:41.589Z,98.41
2022-12-23T10:10:45.435Z,98.40
2022-12-23T10:11:47.147Z,98.43
2022-12-23T10:12:50.068Z,98.46
2022-12-23T10:13:56.331Z,98.44
2022-12-23T10:14:58.873Z,98.43
2022-12-23T10:16:03.648Z,98.43
2022-12-23T10:17:12.796Z,98.47
2022-12-23T10:18:23.498Z,98.33
2022-12-23T10:19:34.133Z,98.24
2022-12-23T10:20:39.813Z,98.14
2022-12-23T10:21:56.494Z,98.20
2022-12-23T10:22:58.105Z,98.23
2022-12-23T10:24:02.246Z,98.27
2022-12-23T10:25:04.766Z,98.29
2022-12-23T10:26:20.297Z,98.24
2022-12-23T10:27:37.406Z,98.24
2022-12-23T10:28:38.989Z,98.20
2022-12-23T10:29:40.594Z,98.22
2022-12-23T10:31:05.885Z,98.12
2022-12-23T10:32:12.944Z,98.18
2022-12-23T10:33:22.149Z,98.20
2022-12-23T10:34:38.113Z,98.18
2022-12-23T10:36:01.742Z,98.24
2022-12-23T10:37:08.540Z,98.43
2022-12-23T10:38:31.197Z,98.39
2022-12-23T10:39:37.887Z,98.36
2022-12-23T10:40:52.563Z,98.35
2022-12-23T10:41:54.191Z,98.24
2022-12-23T10:43:14.015Z,98.18
2022-12-23T10:44:54.175Z,98.20
2022-12-23T10:46:01.856Z,98.16
2022-12-23T10:47:24.613Z,98.12
2022-12-23T10:48:44.508Z,98.15
2022-12-23T10:50:27.602Z,98.18
2022-12-23T10:51:56.418Z,98.29
2022-12-23T10:52:58.617Z,98.33
2022-12-23T10:54:10.463Z,98.32
2022-12-23T10:55:33.181Z,98.29
2022-12-23T10:56:35.372Z,98.21
2022-12-23T10:57:36.969Z,98.22
2022-12-23T10:58:41.740Z,98.28
2022-12-23T10:59:43.481Z,98.32
2022-12-23T11:00:57.584Z,98.24
2022-12-23T11:02:02.148Z,98.07
2022-12-23T11:03:16.500Z,98.06
2022-12-23T11:04:18.587Z,98.01
2022-12-23T11:05:27.748Z,97.98
2022-12-23T11:06:36.537Z,98.01
2022-12-23T11:07:46.361Z,98.12
2022-12-23T11:08:48.259Z,98.13
2022-12-23T11:09:58.876Z,98.06
2022-12-23T11:11:01.409Z,98.08
2022-12-23T11:12:07.564Z,98.06
2022-12-23T11:13:09.200Z,98.19
2022-12-23T11:14:32.320Z,98.28
2022-12-23T11:15:38.740Z,98.30
2022-12-23T11:16:45.516Z,98.32
2022-12-23T11:17:49.266Z,98.26
2022-12-23T11:19:02.535Z,98.19
2022-12-23T11:20:10.243Z,98.19
2022-12-23T11:21:14.089Z,98.13
2022-12-23T11:22:23.515Z,98.18
2022-12-23T11:23:29.950Z,98.14
2022-12-23T11:24:38.042Z,98.19
2022-12-23T11:25:43.390Z,98.20
2022-12-23T11:26:46.346Z,98.18
2022-12-23T11:27:47.945Z,98.13
2022-12-23T11:28:53.553Z,98.12
2022-12-23T11:29:55.144Z,98.24
2022-12-23T11:31:11.825Z,98.12
2022-12-23T11:32:22.407Z,98.09
2022-12-23T11:33:26.538Z,98.02
2022-12-23T11:34:37.124Z,98.08
2022-12-23T11:35:38.785Z,98.09
2022-12-23T11:36:40.454Z,98.14
2022-12-23T11:37:42.938Z,98.19
2022-12-23T11:39:14.947Z,98.11
2022-12-23T11:40:30.790Z,98.08
2022-12-23T11:41:39.296Z,98.12
2022-12-23T11:42:41.239Z,98.15
2022-12-23T11:43:42.842Z,98.08
2022-12-23T11:44:46.143Z,98.07
2022-12-23T11:45:47.863Z,98.11
2022-12-23T11:46:49.741Z,98.14
2022-12-23T11:47:51.337Z,98.06
2022-12-23T11:49:34.143Z,97.88
2022-12-23T11:50:37.423Z,97.67
2022-12-23T11:51:39.100Z,97.76
2022-12-23T11:52:40.741Z,97.70
2022-12-23T11:53:43.199Z,97.72
2022-12-23T11:54:56.374Z,97.79
2022-12-23T11:56:00.311Z,97.86
2022-12-23T11:57:03.082Z,97.90
2022-12-23T11:58:04.831Z,97.96
2022-12-23T11:59:08.333Z,97.98
2022-12-23T12:00:21.222Z,97.97
2022-12-23T12:01:23.973Z,97.98
2022-12-23T12:02:34.241Z,97.92
2022-12-23T12:03:39.817Z,97.85
2022-12-23T12:04:41.461Z,97.82
2022-12-23T12:05:55.245Z,97.91
2022-12-23T12:06:57.019Z,97.98
2022-12-23T12:08:00.339Z,97.93
2022-12-23T12:09:03.086Z,97.97
2022-12-23T12:10:05.038Z,97.95
2022-12-23T12:11:12.453Z,97.95
2022-12-23T12:12:16.767Z,98.02
2022-12-23T12:13:28.243Z,98.10
2022-12-23T12:14:43.164Z,98.03
2022-12-23T12:15:55.161Z,97.99
2022-12-23T12:17:05.377Z,97.91
2022-12-23T12:18:08.172Z,97.86
2022-12-23T12:19:17.358Z,97.93
2022-12-23T12:20:24.694Z,97.92
2022-12-23T12:21:29.044Z,97.92
2022-12-23T12:22:38.049Z,97.88
2022-12-23T12:24:14.781Z,97.95
2022-12-23T12:25:39.677Z,97.89
2022-12-23T12:26:41.565Z,97.86
2022-12-23T12:27:44.426Z,97.81
2022-12-23T12:28:47.655Z,97.90
2022-12-23T12:30:11.907Z,97.89
2022-12-23T12:31:17.089Z,97.88
2022-12-23T12:32:36.579Z,97.99
2022-12-23T12:33:53.338Z,97.97
2022-12-23T12:35:03.472Z,98.00
2022-12-23T12:36:11.396Z,98.00
2022-12-23T12:37:30.203Z,97.97
2022-12-23T12:38:34.810Z,97.96
2022-12-23T12:39:41.066Z,97.97
2022-12-23T12:40:47.829Z,97.90
2022-12-23T12:42:03.617Z,97.89
2022-12-23T12:43:25.999Z,97.83
2022-12-23T12:44:52.110Z,97.82
2022-12-23T12:46:35.339Z,97.80
2022-12-23T12:48:02.099Z,97.61
2022-12-23T12:49:26.182Z,97.53
2022-12-23T12:50:30.317Z,97.49
2022-12-23T12:51:51.588Z,97.44
2022-12-23T12:52:53.197Z,97.40
2022-12-23T12:54:12.814Z,97.41
2022-12-23T12:55:26.412Z,97.36
2022-12-23T12:56:34.485Z,97.29
2022-12-23T12:57:36.372Z,97.27
2022-12-23T12:58:38.447Z,97.29
2022-12-23T12:59:40.082Z,97.26
2022-12-23T13:00:51.208Z,97.26
2022-12-23T13:01:52.873Z,97.32
2022-12-23T13:03:08.094Z,97.35
2022-12-23T13:04:36.767Z,97.31
2022-12-23T13:05:40.866Z,97.26
2022-12-23T13:06:53.498Z,97.17
2022-12-23T13:08:04.289Z,97.16
2022-12-23T13:09:15.713Z,97.30
2022-12-23T13:10:56.482Z,97.07
2022-12-23T13:12:36.978Z,96.92
2022-12-23T13:14:06.015Z,96.73
2022-12-23T13:15:16.914Z,96.67
2022-12-23T13:16:40.922Z,96.28
2022-12-23T13:17:58.802Z,96.26
2022-12-23T13:19:03.493Z,96.33
2022-12-23T13:20:35.413Z,95.94
2022-12-23T13:21:38.576Z,95.52
2022-12-23T13:22:40.301Z,95.50
2022-12-23T13:23:48.779Z,95.53
2022-12-23T13:25:09.250Z,95.37
2022-12-23T13:26:48.417Z,95.45
2022-12-23T13:27:55.752Z,95.64
2022-12-23T13:29:22.380Z,95.40
2022-12-23T13:30:24.694Z,95.35
2022-12-23T13:31:48.833Z,95.41
2022-12-23T13:33:06.902Z,95.59
2022-12-23T13:34:41.738Z,95.78
2022-12-23T13:36:13.409Z,95.52
2022-12-23T13:37:18.704Z,95.37
2022-12-23T13:38:39.598Z,95.41
2022-12-23T13:40:01.010Z,95.53
2022-12-23T13:41:20.880Z,95.46
2022-12-23T13:42:30.295Z,95.49
2022-12-23T13:43:55.379Z,95.33
2022-12-23T13:44:57.029Z,95.30
2022-12-23T13:45:58.688Z,95.22
2022-12-23T13:47:12.343Z,95.24
2022-12-23T13:48:37.004Z,95.37
2022-12-23T13:49:59.860Z,95.37
2022-12-23T13:51:43.607Z,95.46
2022-12-23T13:53:01.988Z,95.56
2022-12-23T13:54:19.890Z,95.67
2022-12-23T13:55:33.430Z,95.70
2022-12-23T13:56:56.717Z,95.71
2022-12-23T13:58:19.372Z,95.74
2022-12-23T13:59:20.978Z,95.72
2022-12-23T14:00:30.276Z,95.83
2022-12-23T14:01:34.619Z,95.74
2022-12-23T14:02:36.459Z,95.81
2022-12-23T14:03:38.791Z,95.62
2022-12-23T14:05:10.468Z,95.49
2022-12-23T14:06:23.910Z,95.46
2022-12-23T14:07:25.549Z,95.34
2022-12-23T14:08:41.201Z,95.32
2022-12-23T14:09:43.288Z,95.36
2022-12-23T14:10:50.885Z,95.33
2022-12-23T14:11:52.570Z,95.46
2022-12-23T14:13:05.695Z,95.45
2022-12-23T14:14:07.314Z,95.48
2022-12-23T14:15:27.135Z,95.51
2022-12-23T14:16:46.866Z,95.38
2022-12-23T14:18:07.457Z,95.28
2022-12-23T14:19:27.096Z,95.26
2022-12-23T14:20:51.378Z,95.01
2022-12-23T14:22:11.925Z,95.08